createdAt,value
2018-05-10T00:00:14.492Z,0
2018-05-10T00:10:15.544Z,0
2018-05-10T00:20:14.532Z,0
2018-05-10T00:30:15.526Z,0
2018-05-10T00:40:14.546Z,0
2018-05-10T00:50:15.461Z,0
2018-05-10T01:00:14.523Z,0
2018-05-10T01:10:14.510Z,0
2018-05-10T01:20:14.577Z,0
2018-05-10T01:30:14.575Z,0
2018-05-10T01:40:14.546Z,0
2018-05-10T01:50:14.527Z,0
2018-05-10T02:00:14.517Z,0
2018-05-10T02:10:14.545Z,0
2018-05-10T02:20:15.520Z,0
2018-05-10T02:30:14.512Z,0
2018-05-10T02:40:14.542Z,0
2018-05-10T02:50:14.515Z,0
2018-05-10T03:00:25.087Z,0
2018-05-10T03:10:15.541Z,4
2018-05-10T03:20:14.526Z,12
2018-05-10T03:30:14.489Z,56
2018-05-10T03:40:14.553Z,172
2018-05-10T03:50:24.099Z,396
2018-05-10T04:10:34.938Z,1108
2018-05-10T04:20:32.636Z,1428
2018-05-10T04:30:14.544Z,3296
2018-05-10T04:40:22.920Z,5112
2018-05-10T04:50:14.510Z,4140
2018-05-10T05:10:14.519Z,3520
2018-05-10T05:20:18.825Z,4000
2018-05-10T05:40:16.593Z,2816
2018-05-10T06:10:14.487Z,2576
2018-05-10T06:20:14.526Z,6688
2018-05-10T06:30:18.376Z,7712
2018-05-10T06:50:14.570Z,27712
2018-05-10T07:00:39.037Z,39328
2018-05-10T07:10:26.127Z,19680
2018-05-10T07:20:14.579Z,12864
2018-05-10T07:30:14.564Z,12364
2018-05-10T07:40:14.625Z,20928
2018-05-10T07:50:19.734Z,19648
2018-05-10T08:00:14.561Z,20384
2018-05-10T08:20:14.551Z,24512
2018-05-10T09:00:26.037Z,24992
2018-05-10T09:30:29.082Z,21984
2018-05-10T09:40:31.626Z,10620
2018-05-10T09:50:19.893Z,5340
2018-05-10T10:10:21.725Z,5832
2018-05-10T10:20:33.018Z,4836
2018-05-10T10:30:22.957Z,8608
2018-05-10T10:50:35.867Z,5776
2018-05-10T11:00:15.650Z,4796
2018-05-10T11:30:15.354Z,5000
2018-05-10T12:40:15.864Z,6468
2018-05-10T12:50:20.659Z,4724
2018-05-10T13:00:15.331Z,3060
2018-05-10T13:10:14.655Z,2548
2018-05-10T13:20:14.731Z,1860
2018-05-10T13:30:18.216Z,2116
2018-05-10T13:40:15.412Z,2672
2018-05-10T13:50:14.624Z,1856
2018-05-10T14:00:14.906Z,2176
2018-05-10T14:10:14.761Z,3308
2018-05-10T14:20:14.624Z,4596
2018-05-10T14:30:14.732Z,4228
2018-05-10T14:40:14.767Z,4196
2018-05-10T14:50:14.754Z,3672
2018-05-10T15:00:14.571Z,3752
2018-05-10T15:10:14.716Z,2820
2018-05-10T15:20:14.605Z,3740
2018-05-10T15:30:14.634Z,4088
2018-05-10T15:40:14.744Z,5384
2018-05-10T15:50:14.714Z,7372
2018-05-10T16:00:14.640Z,3872
2018-05-10T16:10:14.728Z,5424
2018-05-10T16:20:14.663Z,3072
2018-05-10T16:30:15.770Z,2500
2018-05-10T16:40:15.785Z,3464
2018-05-10T16:50:14.803Z,3356
2018-05-10T17:00:14.810Z,2000
2018-05-10T17:10:14.844Z,1268
2018-05-10T17:20:14.667Z,804
2018-05-10T17:30:15.084Z,460
2018-05-10T17:40:14.662Z,304
2018-05-10T17:50:14.733Z,328
2018-05-10T18:00:14.720Z,316
2018-05-10T18:10:14.677Z,204
2018-05-10T18:20:14.551Z,348
2018-05-10T18:30:15.736Z,372
2018-05-10T18:40:14.574Z,236
2018-05-10T18:50:14.548Z,160
2018-05-10T19:00:14.580Z,108
2018-05-10T19:10:14.703Z,76
2018-05-10T19:20:14.661Z,44
2018-05-10T19:30:14.659Z,16
2018-05-10T19:40:14.661Z,0
2018-05-10T19:50:14.620Z,4
2018-05-10T20:00:14.945Z,0
2018-05-10T20:10:14.651Z,0
2018-05-10T20:20:14.609Z,0
2018-05-10T20:30:14.657Z,0
2018-05-10T20:40:14.642Z,0
2018-05-10T20:50:17.745Z,4
2018-05-10T21:00:14.566Z,0
2018-05-10T21:10:14.648Z,4
2018-05-10T21:20:18.455Z,0
2018-05-10T21:30:14.615Z,0
2018-05-10T21:40:14.560Z,0
2018-05-10T21:50:14.548Z,0
2018-05-10T22:00:14.615Z,0
2018-05-10T22:10:14.713Z,0
2018-05-10T22:20:14.737Z,0
2018-05-10T22:30:14.631Z,0
2018-05-10T22:40:14.760Z,0
2018-05-10T22:50:14.594Z,0
2018-05-10T23:00:14.619Z,0
2018-05-10T23:10:14.671Z,0
2018-05-10T23:20:14.756Z,0
2018-05-10T23:30:14.710Z,0
2018-05-10T23:40:14.567Z,0
2018-05-10T23:50:14.623Z,0
